createdAt,value
2018-08-20T00:00:13.184Z,97868.27
2018-08-20T00:00:44.790Z,97873.39
2018-08-20T00:01:16.398Z,97867.41
2018-08-20T00:01:48.010Z,97863.48
2018-08-20T00:02:19.614Z,97866.49
2018-08-20T00:02:51.261Z,97865.61
2018-08-20T00:03:22.865Z,97863.88
2018-08-20T00:03:54.456Z,97863.12
2018-08-20T00:04:26.053Z,97849.58
2018-08-20T00:04:57.657Z,97871.44
2018-08-20T00:05:29.254Z,97864.64
2018-08-20T00:06:00.834Z,97864.53
2018-08-20T00:06:32.438Z,97872.62
2018-08-20T00:07:04.043Z,97870.47
2018-08-20T00:07:35.642Z,97869.55
2018-08-20T00:08:07.282Z,97871.25
2018-08-20T00:08:38.881Z,97875.47
2018-08-20T00:09:10.472Z,97869.42
2018-08-20T00:09:42.074Z,97862.17
2018-08-20T00:10:13.678Z,97861.36
2018-08-20T00:10:45.307Z,97862.52
2018-08-20T00:11:16.906Z,97873.29
2018-08-20T00:11:48.502Z,97864.75
2018-08-20T00:12:20.092Z,97862.36
2018-08-20T00:12:51.698Z,97862.36
2018-08-20T00:13:23.337Z,97862.55
2018-08-20T00:13:54.938Z,97863.97
2018-08-20T00:14:26.530Z,97864.91
2018-08-20T00:14:58.106Z,97856.02
2018-08-20T00:15:29.710Z,97862.95
2018-08-20T00:16:01.358Z,97862.16
2018-08-20T00:16:32.935Z,97855.80
2018-08-20T00:17:04.540Z,97858.69
2018-08-20T00:17:36.129Z,97855.60
2018-08-20T00:18:07.719Z,97856.52
2018-08-20T00:18:39.322Z,97857.73
2018-08-20T00:19:10.919Z,97861.99
2018-08-20T00:19:42.553Z,97859.94
2018-08-20T00:20:14.162Z,97858.99
2018-08-20T00:20:45.752Z,97858.55
2018-08-20T00:21:17.356Z,97860.64
2018-08-20T00:21:48.962Z,97861.91
2018-08-20T00:22:20.559Z,97857.30
2018-08-20T00:22:52.152Z,97857.29
2018-08-20T00:23:23.754Z,97861.37
2018-08-20T00:23:55.349Z,97856.48
2018-08-20T00:24:26.993Z,97855.95
2018-08-20T00:24:58.584Z,97851.27
2018-08-20T00:25:30.175Z,97846.67
2018-08-20T00:26:01.826Z,97851.03
2018-08-20T00:26:33.407Z,97853.58
2018-08-20T00:27:04.995Z,97853.59
2018-08-20T00:27:36.588Z,97850.20
2018-08-20T00:28:08.176Z,97853.27
2018-08-20T00:28:39.778Z,97849.42
2018-08-20T00:29:11.382Z,97854.44
2018-08-20T00:29:42.977Z,97854.75
2018-08-20T00:30:14.575Z,97850.84
2018-08-20T00:30:46.182Z,97846.05
2018-08-20T00:31:17.824Z,97847.88
2018-08-20T00:31:49.431Z,97857.80
2018-08-20T00:32:21.024Z,97847.16
2018-08-20T00:32:52.634Z,97851.78
2018-08-20T00:33:24.229Z,97857.44
2018-08-20T00:33:55.833Z,97850.94
2018-08-20T00:34:27.424Z,97848.80
2018-08-20T00:34:59.017Z,97849.63
2018-08-20T00:35:30.602Z,97854.67
2018-08-20T00:36:02.259Z,97853.86
2018-08-20T00:36:33.823Z,97847.86
2018-08-20T00:37:05.397Z,97855.53
2018-08-20T00:37:36.988Z,97850.02
2018-08-20T00:38:08.624Z,97849.55
2018-08-20T00:38:40.226Z,97854.59
2018-08-20T00:39:11.806Z,97851.59
2018-08-20T00:39:43.396Z,97850.22
2018-08-20T00:40:15.025Z,97846.63
2018-08-20T00:40:46.616Z,97853.86
2018-08-20T00:41:18.214Z,97853.00
2018-08-20T00:41:49.818Z,97848.33
2018-08-20T00:42:21.422Z,97845.92
2018-08-20T00:42:53.023Z,97850.30
2018-08-20T00:43:24.658Z,97852.52
2018-08-20T00:43:56.295Z,97852.96
2018-08-20T00:44:27.897Z,97852.19
2018-08-20T00:44:59.478Z,97851.11
2018-08-20T00:45:31.082Z,97853.71
2018-08-20T00:46:02.664Z,97856.78
2018-08-20T00:46:34.240Z,97852.95
2018-08-20T00:47:05.830Z,97849.97
2018-08-20T00:47:37.434Z,97853.44
2018-08-20T00:48:09.042Z,97851.31
2018-08-20T00:48:40.636Z,97850.45
2018-08-20T00:49:12.261Z,97848.84
2018-08-20T00:49:43.901Z,97848.84
2018-08-20T00:50:15.487Z,97850.16
2018-08-20T00:50:47.151Z,97853.63
2018-08-20T00:51:18.740Z,97850.26
2018-08-20T00:51:50.327Z,97850.30
2018-08-20T00:52:21.902Z,97851.64
2018-08-20T00:52:53.497Z,97849.08
2018-08-20T00:53:25.103Z,97854.20
2018-08-20T00:53:56.707Z,97849.09
2018-08-20T00:54:28.365Z,97852.58
2018-08-20T00:54:59.974Z,97849.20
2018-08-20T00:55:31.559Z,97851.31
2018-08-20T00:56:03.152Z,97850.80
2018-08-20T00:56:34.744Z,97846.89
2018-08-20T00:57:06.346Z,97848.57
2018-08-20T00:57:37.949Z,97847.29
2018-08-20T00:58:09.540Z,97846.45
2018-08-20T00:58:41.144Z,97847.71
2018-08-20T00:59:12.746Z,97847.67
2018-08-20T00:59:44.372Z,97849.28
2018-08-20T01:00:15.959Z,97846.88
2018-08-20T01:00:47.563Z,97842.48
2018-08-20T01:01:19.178Z,97842.30
2018-08-20T01:01:50.808Z,97850.33
2018-08-20T01:02:22.426Z,97841.86
2018-08-20T01:02:54.029Z,97839.89
2018-08-20T01:03:25.608Z,97851.82
2018-08-20T01:03:57.206Z,97848.73
2018-08-20T01:04:28.836Z,97849.77
2018-08-20T01:05:00.434Z,97844.80
2018-08-20T01:05:32.031Z,97848.30
2018-08-20T01:06:03.620Z,97843.97
2018-08-20T01:06:35.208Z,97842.66
2018-08-20T01:07:06.796Z,97850.29
2018-08-20T01:07:38.397Z,97847.36
2018-08-20T01:08:09.991Z,97846.88
2018-08-20T01:08:41.590Z,97846.44
2018-08-20T01:09:13.234Z,97848.91
2018-08-20T01:09:44.825Z,97850.15
2018-08-20T01:10:16.416Z,97854.45
2018-08-20T01:10:48.012Z,97846.77
2018-08-20T01:11:19.613Z,97846.30
2018-08-20T01:11:51.214Z,97849.64
2018-08-20T01:12:22.794Z,97850.42
2018-08-20T01:12:54.370Z,97851.23
2018-08-20T01:13:25.970Z,97849.03
2018-08-20T01:13:57.569Z,97853.42
2018-08-20T01:14:29.214Z,97854.45
2018-08-20T01:15:00.805Z,97851.11
2018-08-20T01:15:32.383Z,97845.92
2018-08-20T01:16:03.968Z,97852.39
2018-08-20T01:16:35.571Z,97853.71
2018-08-20T01:17:07.166Z,97851.13
2018-08-20T01:17:38.894Z,97856.23
2018-08-20T01:18:10.483Z,97845.98
2018-08-20T01:18:42.086Z,97846.49
2018-08-20T01:19:13.686Z,97847.39
2018-08-20T01:19:45.274Z,97844.89
2018-08-20T01:20:16.867Z,97850.22
2018-08-20T01:20:48.452Z,97843.02
2018-08-20T01:21:20.073Z,97846.95
2018-08-20T01:21:51.730Z,97849.11
2018-08-20T01:22:23.320Z,97848.25
2018-08-20T01:22:54.912Z,97845.37
2018-08-20T01:23:26.511Z,97848.09
2018-08-20T01:23:58.097Z,97847.17
2018-08-20T01:24:29.688Z,97853.44
2018-08-20T01:25:01.278Z,97850.73
2018-08-20T01:25:32.854Z,97845.11
2018-08-20T01:26:04.441Z,97848.12
2018-08-20T01:26:36.047Z,97849.78
2018-08-20T01:27:07.676Z,97841.67
2018-08-20T01:27:39.614Z,97848.88
2018-08-20T01:28:11.218Z,97847.64
2018-08-20T01:28:42.812Z,97843.81
2018-08-20T01:29:14.444Z,97849.81
2018-08-20T01:29:46.051Z,97847.30
2018-08-20T01:30:17.677Z,97855.84
2018-08-20T01:30:49.254Z,97856.26
2018-08-20T01:31:20.830Z,97854.63
2018-08-20T01:31:52.411Z,97849.03
2018-08-20T01:32:24.014Z,97842.75
2018-08-20T01:32:55.643Z,97846.23
2018-08-20T01:33:27.246Z,97847.41
2018-08-20T01:33:58.870Z,97847.71
2018-08-20T01:34:30.460Z,97852.33
2018-08-20T01:35:02.053Z,97857.64
2018-08-20T01:35:33.645Z,97848.58
2018-08-20T01:36:05.330Z,97853.19
2018-08-20T01:36:36.935Z,97850.27
2018-08-20T01:37:08.528Z,97850.34
2018-08-20T01:37:40.102Z,97855.05
2018-08-20T01:38:11.699Z,97855.52
2018-08-20T01:38:43.288Z,97850.10
2018-08-20T01:39:14.895Z,97851.00
2018-08-20T01:39:46.498Z,97850.58
2018-08-20T01:40:18.088Z,97849.81
2018-08-20T01:40:49.689Z,97849.38
2018-08-20T01:41:21.320Z,97853.98
2018-08-20T01:41:52.908Z,97848.92
2018-08-20T01:42:24.511Z,97850.22
2018-08-20T01:42:56.118Z,97852.42
2018-08-20T01:43:27.726Z,97851.54
2018-08-20T01:43:59.330Z,97849.84
2018-08-20T01:44:30.982Z,97848.48
2018-08-20T01:45:02.590Z,97847.89
2018-08-20T01:45:34.180Z,97849.97
2018-08-20T01:46:05.776Z,97849.11
2018-08-20T01:46:37.413Z,97853.34
2018-08-20T01:47:09.002Z,97851.22
2018-08-20T01:47:40.578Z,97850.96
2018-08-20T01:48:12.172Z,97850.16
2018-08-20T01:48:43.760Z,97851.50
2018-08-20T01:49:15.338Z,97851.91
2018-08-20T01:49:46.928Z,97853.66
2018-08-20T01:50:18.525Z,97851.50
2018-08-20T01:50:50.106Z,97844.67
2018-08-20T01:51:21.696Z,97844.73
2018-08-20T01:51:53.314Z,97851.92
2018-08-20T01:52:24.912Z,97847.16
2018-08-20T01:52:56.499Z,97847.12
2018-08-20T01:53:28.092Z,97851.20
2018-08-20T01:53:59.694Z,97848.12
2018-08-20T01:54:31.283Z,97847.09
2018-08-20T01:55:02.873Z,97843.25
2018-08-20T01:55:34.467Z,97842.84
2018-08-20T01:56:06.056Z,97841.31
2018-08-20T01:56:37.658Z,97847.88
2018-08-20T01:57:09.297Z,97845.23
2018-08-20T01:57:40.892Z,97846.00
2018-08-20T01:58:12.480Z,97846.86
2018-08-20T01:58:44.068Z,97842.17
2018-08-20T01:59:15.669Z,97847.22
2018-08-20T01:59:47.336Z,97842.05
2018-08-20T02:00:18.928Z,97847.45
2018-08-20T02:00:50.516Z,97844.94
2018-08-20T02:01:22.094Z,97844.53
2018-08-20T02:01:53.705Z,97842.39
2018-08-20T02:02:25.332Z,97845.39
2018-08-20T02:02:56.934Z,97842.81
2018-08-20T02:03:28.528Z,97851.91
2018-08-20T02:04:00.129Z,97849.53
2018-08-20T02:04:31.726Z,97846.63
2018-08-20T02:05:03.320Z,97845.34
2018-08-20T02:05:34.912Z,97847.14
2018-08-20T02:06:06.504Z,97851.42
2018-08-20T02:06:38.099Z,97844.23
2018-08-20T02:07:09.698Z,97849.72
2018-08-20T02:07:41.327Z,97848.97
2018-08-20T02:08:12.919Z,97845.25
2018-08-20T02:08:44.552Z,97841.91
2018-08-20T02:09:16.140Z,97845.41
2018-08-20T02:09:47.732Z,97847.32
2018-08-20T02:10:19.319Z,97844.55
2018-08-20T02:10:50.921Z,97842.67
2018-08-20T02:11:22.541Z,97850.00
2018-08-20T02:11:54.136Z,97844.15
2018-08-20T02:12:25.739Z,97849.80
2018-08-20T02:12:57.332Z,97847.23
2018-08-20T02:13:28.934Z,97853.95
2018-08-20T02:14:00.586Z,97847.00
2018-08-20T02:14:32.194Z,97848.66
2018-08-20T02:15:03.784Z,97854.28
2018-08-20T02:15:35.362Z,97856.95
2018-08-20T02:16:06.953Z,97850.09
2018-08-20T02:16:38.529Z,97848.31
2018-08-20T02:17:10.114Z,97842.67
2018-08-20T02:17:41.722Z,97845.16
2018-08-20T02:18:13.326Z,97848.16
2018-08-20T02:18:44.915Z,97859.87
2018-08-20T02:19:16.563Z,97858.53
2018-08-20T02:19:48.154Z,97856.39
2018-08-20T02:20:19.758Z,97856.59
2018-08-20T02:20:51.353Z,97842.66
2018-08-20T02:21:22.958Z,97847.42
2018-08-20T02:21:54.567Z,97842.30
2018-08-20T02:22:26.161Z,97844.27
2018-08-20T02:22:57.742Z,97838.31
2018-08-20T02:23:29.390Z,97852.19
2018-08-20T02:24:00.980Z,97854.77
2018-08-20T02:24:32.571Z,97848.81
2018-08-20T02:25:04.156Z,97850.52
2018-08-20T02:25:35.744Z,97856.05
2018-08-20T02:26:07.345Z,97850.67
2018-08-20T02:26:38.950Z,97851.97
2018-08-20T02:27:10.562Z,97844.70
2018-08-20T02:27:42.173Z,97849.66
2018-08-20T02:28:13.778Z,97843.22
2018-08-20T02:28:45.402Z,97848.69
2018-08-20T02:29:16.982Z,97852.01
2018-08-20T02:29:48.578Z,97850.78
2018-08-20T02:30:20.174Z,97849.23
2018-08-20T02:30:51.772Z,97850.00
2018-08-20T02:31:23.419Z,97843.91
2018-08-20T02:31:55.008Z,97848.16
2018-08-20T02:32:26.610Z,97849.69
2018-08-20T02:32:58.205Z,97849.63
2018-08-20T02:33:29.851Z,97846.75
2018-08-20T02:34:01.434Z,97850.34
2018-08-20T02:34:33.014Z,97850.42
2018-08-20T02:35:04.604Z,97845.48
2018-08-20T02:35:36.235Z,97844.63
2018-08-20T02:36:07.855Z,97838.39
2018-08-20T02:36:39.458Z,97844.96
2018-08-20T02:37:11.095Z,97841.98
2018-08-20T02:37:42.688Z,97847.52
2018-08-20T02:38:14.388Z,97844.55
2018-08-20T02:38:45.961Z,97845.40
2018-08-20T02:39:17.566Z,97843.19
2018-08-20T02:39:49.196Z,97841.88
2018-08-20T02:40:20.786Z,97841.45
2018-08-20T02:40:52.415Z,97840.20
2018-08-20T02:41:23.999Z,97846.61
2018-08-20T02:41:55.587Z,97840.64
2018-08-20T02:42:27.246Z,97839.01
2018-08-20T02:42:58.850Z,97840.59
2018-08-20T02:43:30.471Z,97838.55
2018-08-20T02:44:02.063Z,97842.34
2018-08-20T02:44:33.670Z,97841.88
2018-08-20T02:45:05.264Z,97839.25
2018-08-20T02:45:36.847Z,97836.52
2018-08-20T02:46:08.454Z,97833.09
2018-08-20T02:46:40.048Z,97841.97
2018-08-20T02:47:11.653Z,97839.83
2018-08-20T02:47:43.295Z,97838.47
2018-08-20T02:48:14.892Z,97841.53
2018-08-20T02:48:46.486Z,97837.81
2018-08-20T02:49:18.080Z,97837.91
2018-08-20T02:49:49.669Z,97840.08
2018-08-20T02:50:21.256Z,97836.80
2018-08-20T02:50:52.888Z,97842.31
2018-08-20T02:51:24.490Z,97841.89
2018-08-20T02:51:56.079Z,97836.69
2018-08-20T02:52:27.686Z,97841.31
2018-08-20T02:52:59.268Z,97843.79
2018-08-20T02:53:30.906Z,97837.03
2018-08-20T02:54:02.509Z,97835.33
2018-08-20T02:54:34.113Z,97841.63
2018-08-20T02:55:05.712Z,97835.00
2018-08-20T02:55:37.314Z,97844.33
2018-08-20T02:56:08.944Z,97835.19
2018-08-20T02:56:40.522Z,97831.97
2018-08-20T02:57:12.125Z,97837.69
2018-08-20T02:57:43.711Z,97838.19
2018-08-20T02:58:15.304Z,97839.06
2018-08-20T02:58:46.896Z,97838.70
2018-08-20T02:59:18.488Z,97846.80
2018-08-20T02:59:50.066Z,97842.19
2018-08-20T03:00:21.652Z,97843.33
2018-08-20T03:00:53.280Z,97842.70
2018-08-20T03:01:24.881Z,97841.13
2018-08-20T03:01:56.486Z,97836.28
2018-08-20T03:02:28.090Z,97838.75
2018-08-20T03:02:59.677Z,97839.87
2018-08-20T03:03:31.353Z,97832.91
2018-08-20T03:04:02.927Z,97835.48
2018-08-20T03:04:34.542Z,97839.75
2018-08-20T03:05:06.138Z,97838.81
2018-08-20T03:05:37.751Z,97841.88
2018-08-20T03:06:09.335Z,97840.09
2018-08-20T03:06:40.965Z,97838.80
2018-08-20T03:07:12.566Z,97843.02
2018-08-20T03:07:44.174Z,97838.81
2018-08-20T03:08:15.773Z,97841.39
2018-08-20T03:08:47.415Z,97838.93
2018-08-20T03:09:19.021Z,97838.99
2018-08-20T03:09:50.670Z,97835.99
2018-08-20T03:10:22.264Z,97830.02
2018-08-20T03:10:53.852Z,97833.17
2018-08-20T03:11:25.454Z,97840.52
2018-08-20T03:11:57.062Z,97835.77
2018-08-20T03:12:28.673Z,97840.34
2018-08-20T03:13:00.323Z,97843.97
2018-08-20T03:13:31.916Z,97839.20
2018-08-20T03:14:03.494Z,97840.86
2018-08-20T03:14:35.080Z,97835.30
2018-08-20T03:15:06.668Z,97838.69
2018-08-20T03:15:38.261Z,97833.10
2018-08-20T03:16:09.855Z,97837.63
2018-08-20T03:16:41.451Z,97833.20
2018-08-20T03:17:13.040Z,97837.78
2018-08-20T03:17:44.622Z,97836.31
2018-08-20T03:18:16.271Z,97835.80
2018-08-20T03:18:47.874Z,97838.65
2018-08-20T03:19:19.482Z,97833.91
2018-08-20T03:19:51.086Z,97840.27
2018-08-20T03:20:22.686Z,97838.48
2018-08-20T03:20:54.290Z,97839.34
2018-08-20T03:21:25.880Z,97838.05
2018-08-20T03:21:57.459Z,97838.89
2018-08-20T03:22:29.061Z,97840.53
2018-08-20T03:23:00.652Z,97837.84
2018-08-20T03:23:32.279Z,97837.13
2018-08-20T03:24:03.872Z,97838.89
2018-08-20T03:24:35.463Z,97843.11
2018-08-20T03:25:07.052Z,97846.86
2018-08-20T03:25:38.659Z,97841.30
2018-08-20T03:26:10.292Z,97843.94
2018-08-20T03:26:41.894Z,97841.46
2018-08-20T03:27:13.483Z,97836.02
2018-08-20T03:27:45.088Z,97841.59
2018-08-20T03:28:16.676Z,97836.03
2018-08-20T03:28:48.304Z,97835.19
2018-08-20T03:29:19.915Z,97833.09
2018-08-20T03:29:51.522Z,97834.33
2018-08-20T03:30:23.116Z,97838.49
2018-08-20T03:30:54.731Z,97836.70
2018-08-20T03:31:26.320Z,97834.95
2018-08-20T03:31:57.922Z,97833.58
2018-08-20T03:32:29.521Z,97838.70
2018-08-20T03:33:01.123Z,97833.59
2018-08-20T03:33:32.703Z,97833.48
2018-08-20T03:34:04.340Z,97835.96
2018-08-20T03:34:35.942Z,97840.14
2018-08-20T03:35:07.551Z,97836.95
2018-08-20T03:35:39.149Z,97829.98
2018-08-20T03:36:10.736Z,97837.60
2018-08-20T03:36:42.368Z,97834.17
2018-08-20T03:37:13.950Z,97835.86
2018-08-20T03:37:45.542Z,97835.81
2018-08-20T03:38:17.151Z,97836.23
2018-08-20T03:38:48.776Z,97840.92
2018-08-20T03:39:20.382Z,97838.36
2018-08-20T03:39:51.988Z,97837.67
2018-08-20T03:40:23.592Z,97835.22
2018-08-20T03:40:55.209Z,97836.17
2018-08-20T03:41:26.799Z,97836.73
2018-08-20T03:41:58.444Z,97837.69
2018-08-20T03:42:30.037Z,97835.20
2018-08-20T03:43:01.618Z,97836.14
2018-08-20T03:43:33.207Z,97841.39
2018-08-20T03:44:04.782Z,97836.81
2018-08-20T03:44:36.385Z,97841.92
2018-08-20T03:45:07.990Z,97844.47
2018-08-20T03:45:39.593Z,97842.74
2018-08-20T03:46:11.199Z,97841.46
2018-08-20T03:46:42.802Z,97841.94
2018-08-20T03:47:14.440Z,97838.58
2018-08-20T03:47:46.072Z,97845.43
2018-08-20T03:48:17.674Z,97845.88
2018-08-20T03:48:49.254Z,97836.09
2018-08-20T03:49:20.935Z,97842.95
2018-08-20T03:49:52.543Z,97843.37
2018-08-20T03:50:24.136Z,97847.64
2018-08-20T03:50:55.739Z,97841.22
2018-08-20T03:51:27.327Z,97843.73
2018-08-20T03:51:58.920Z,97835.52
2018-08-20T03:52:30.498Z,97838.14
2018-08-20T03:53:02.098Z,97841.92
2018-08-20T03:53:33.679Z,97836.80
2018-08-20T03:54:05.283Z,97849.17
2018-08-20T03:54:36.921Z,97840.73
2018-08-20T03:55:08.523Z,97840.66
2018-08-20T03:55:40.108Z,97843.22
2018-08-20T03:56:11.713Z,97839.80
2018-08-20T03:56:43.308Z,97837.73
2018-08-20T03:57:14.914Z,97839.44
2018-08-20T03:57:46.572Z,97847.05
2018-08-20T03:58:18.150Z,97845.31
2018-08-20T03:58:49.740Z,97846.54
2018-08-20T03:59:21.373Z,97844.36
2018-08-20T03:59:52.964Z,97843.41
2018-08-20T04:00:24.540Z,97847.61
2018-08-20T04:00:56.147Z,97844.53
2018-08-20T04:01:28.058Z,97848.34
2018-08-20T04:01:59.652Z,97843.67
2018-08-20T04:02:31.252Z,97846.20
2018-08-20T04:03:02.858Z,97841.00
2018-08-20T04:03:34.469Z,97840.58
2018-08-20T04:04:06.068Z,97837.64
2018-08-20T04:04:37.720Z,97841.76
2018-08-20T04:05:09.448Z,97844.28
2018-08-20T04:05:40.992Z,97840.80
2018-08-20T04:06:12.570Z,97845.14
2018-08-20T04:06:44.186Z,97843.28
2018-08-20T04:07:15.805Z,97841.61
2018-08-20T04:07:47.410Z,97840.26
2018-08-20T04:08:19.024Z,97845.38
2018-08-20T04:08:50.682Z,97841.05
2018-08-20T04:09:22.273Z,97842.07
2018-08-20T04:09:53.874Z,97839.69
2018-08-20T04:10:25.464Z,97845.77
2018-08-20T04:10:57.186Z,97846.22
2018-08-20T04:11:28.770Z,97839.02
2018-08-20T04:12:00.354Z,97843.34
2018-08-20T04:12:31.954Z,97836.59
2018-08-20T04:13:03.598Z,97845.12
2018-08-20T04:13:35.178Z,97843.85
2018-08-20T04:14:06.816Z,97841.70
2018-08-20T04:14:38.429Z,97845.12
2018-08-20T04:15:10.024Z,97844.25
2018-08-20T04:15:41.631Z,97843.85
2018-08-20T04:16:13.216Z,97843.52
2018-08-20T04:16:44.812Z,97846.10
2018-08-20T04:17:16.404Z,97847.91
2018-08-20T04:17:48.012Z,97847.06
2018-08-20T04:18:19.626Z,97844.92
2018-08-20T04:18:51.207Z,97842.41
2018-08-20T04:19:22.798Z,97844.13
2018-08-20T04:19:54.436Z,97841.16
2018-08-20T04:20:26.024Z,97846.30
2018-08-20T04:20:57.602Z,97847.58
2018-08-20T04:21:29.189Z,97848.02
2018-08-20T04:22:00.780Z,97845.08
2018-08-20T04:22:32.375Z,97843.39
2018-08-20T04:23:03.965Z,97847.31
2018-08-20T04:23:35.563Z,97848.54
2018-08-20T04:24:07.170Z,97844.30
2018-08-20T04:24:38.750Z,97840.06
2018-08-20T04:25:10.402Z,97850.30
2018-08-20T04:25:41.999Z,97845.22
2018-08-20T04:26:13.597Z,97853.33
2018-08-20T04:26:45.252Z,97858.46
2018-08-20T04:27:16.866Z,97853.80
2018-08-20T04:27:48.452Z,97851.59
2018-08-20T04:28:20.045Z,97853.31
2018-08-20T04:28:51.624Z,97853.73
2018-08-20T04:29:23.212Z,97851.09
2018-08-20T04:29:54.800Z,97854.74
2018-08-20T04:30:26.454Z,97850.33
2018-08-20T04:30:58.028Z,97852.32
2018-08-20T04:31:29.638Z,97849.23
2018-08-20T04:32:01.237Z,97852.31
2018-08-20T04:32:33.132Z,97857.13
2018-08-20T04:33:04.785Z,97858.87
2018-08-20T04:33:36.399Z,97851.14
2018-08-20T04:34:08.015Z,97854.76
2018-08-20T04:34:39.609Z,97856.88
2018-08-20T04:35:11.210Z,97856.66
2018-08-20T04:35:42.862Z,97858.61
2018-08-20T04:36:14.452Z,97853.80
2018-08-20T04:36:46.043Z,97856.74
2018-08-20T04:37:17.633Z,97854.52
2018-08-20T04:37:49.224Z,97857.01
2018-08-20T04:38:20.820Z,97852.70
2018-08-20T04:38:52.474Z,97853.56
2018-08-20T04:39:24.087Z,97855.70
2018-08-20T04:39:55.690Z,97860.34
2018-08-20T04:40:27.510Z,97856.06
2018-08-20T04:40:59.110Z,97858.20
2018-08-20T04:41:30.690Z,97856.48
2018-08-20T04:42:02.317Z,97860.75
2018-08-20T04:42:33.900Z,97857.36
2018-08-20T04:43:05.510Z,97856.39
2018-08-20T04:43:37.100Z,97863.77
2018-08-20T04:44:08.750Z,97854.94
2018-08-20T04:44:40.353Z,97860.72
2018-08-20T04:45:11.944Z,97860.20
2018-08-20T04:45:43.541Z,97859.78
2018-08-20T04:46:15.147Z,97860.20
2018-08-20T04:46:46.735Z,97864.90
2018-08-20T04:47:18.333Z,97856.85
2018-08-20T04:47:49.930Z,97859.84
2018-08-20T04:48:21.511Z,97859.11
2018-08-20T04:48:53.104Z,97862.41
2018-08-20T04:49:24.698Z,97863.70
2018-08-20T04:49:56.373Z,97863.28
2018-08-20T04:50:28.094Z,97862.53
2018-08-20T04:50:59.698Z,97865.30
2018-08-20T04:51:31.295Z,97864.23
2018-08-20T04:52:02.776Z,97864.84
2018-08-20T04:52:34.382Z,97866.30
2018-08-20T04:53:05.977Z,97860.88
2018-08-20T04:53:37.875Z,97861.45
2018-08-20T04:54:09.791Z,97856.47
2018-08-20T04:54:41.387Z,97863.70
2018-08-20T04:55:12.975Z,97861.17
2018-08-20T04:55:44.553Z,97860.84
2018-08-20T04:56:16.154Z,97857.59
2018-08-20T04:56:47.748Z,97867.48
2018-08-20T04:57:19.340Z,97867.67
2018-08-20T04:57:50.933Z,97867.80
2018-08-20T04:58:22.538Z,97865.70
2018-08-20T04:58:54.118Z,97864.10
2018-08-20T04:59:25.723Z,97866.80
2018-08-20T04:59:57.327Z,97868.23
2018-08-20T05:00:28.977Z,97862.55
2018-08-20T05:01:00.568Z,97864.55
2018-08-20T05:01:32.151Z,97872.96
2018-08-20T05:02:03.740Z,97862.03
2018-08-20T05:02:35.387Z,97860.30
2018-08-20T05:03:06.990Z,97863.39
2018-08-20T05:03:38.570Z,97868.72
2018-08-20T05:04:10.167Z,97868.04
2018-08-20T05:04:41.761Z,97867.41
2018-08-20T05:05:13.362Z,97868.95
2018-08-20T05:05:44.990Z,97864.63
2018-08-20T05:06:16.570Z,97870.74
2018-08-20T05:06:48.183Z,97871.25
2018-08-20T05:07:19.793Z,97867.94
2018-08-20T05:07:51.393Z,97873.90
2018-08-20T05:08:22.984Z,97873.14
2018-08-20T05:08:54.567Z,97871.45
2018-08-20T05:09:26.156Z,97872.80
2018-08-20T05:09:57.809Z,97872.84
2018-08-20T05:10:29.368Z,97877.61
2018-08-20T05:11:00.958Z,97870.30
2018-08-20T05:11:32.595Z,97867.37
2018-08-20T05:12:04.228Z,97878.47
2018-08-20T05:12:35.871Z,97881.48
2018-08-20T05:13:07.484Z,97878.93
2018-08-20T05:13:39.110Z,97877.28
2018-08-20T05:14:10.718Z,97873.45
2018-08-20T05:14:42.312Z,97876.44
2018-08-20T05:15:13.914Z,97873.09
2018-08-20T05:15:45.495Z,97847.59
2018-08-20T05:16:17.075Z,97876.87
2018-08-20T05:16:48.723Z,97877.31
2018-08-20T05:17:20.318Z,97874.39
2018-08-20T05:17:51.909Z,97880.70
2018-08-20T05:18:23.503Z,97877.80
2018-08-20T05:18:55.138Z,97883.27
2018-08-20T05:19:26.748Z,97875.99
2018-08-20T05:19:58.365Z,97880.28
2018-08-20T05:20:30.004Z,97879.92
2018-08-20T05:21:01.587Z,97883.78
2018-08-20T05:21:33.178Z,97885.09
2018-08-20T05:22:04.776Z,97876.11
2018-08-20T05:22:36.364Z,97877.83
2018-08-20T05:23:07.942Z,97881.25
2018-08-20T05:23:39.528Z,97882.61
2018-08-20T05:24:11.120Z,97880.90
2018-08-20T05:24:42.775Z,97879.18
2018-08-20T05:25:14.378Z,97889.84
2018-08-20T05:25:45.968Z,97879.95
2018-08-20T05:26:17.559Z,97878.66
2018-08-20T05:26:49.181Z,97882.06
2018-08-20T05:27:20.773Z,97882.94
2018-08-20T05:27:52.364Z,97881.16
2018-08-20T05:28:23.965Z,97875.17
2018-08-20T05:28:55.621Z,97881.13
2018-08-20T05:29:27.362Z,97881.13
2018-08-20T05:29:58.852Z,97880.28
2018-08-20T05:30:30.485Z,97880.72
2018-08-20T05:31:02.076Z,97879.09
2018-08-20T05:31:33.654Z,97885.47
2018-08-20T05:32:05.265Z,97889.77
2018-08-20T05:32:36.899Z,97884.22
2018-08-20T05:33:08.483Z,97891.07
2018-08-20T05:33:40.143Z,97885.09
2018-08-20T05:34:11.740Z,97890.28
2018-08-20T05:34:43.350Z,97888.14
2018-08-20T05:35:14.954Z,97883.87
2018-08-20T05:35:46.554Z,97894.97
2018-08-20T05:36:18.182Z,97891.14
2018-08-20T05:36:49.772Z,97896.69
2018-08-20T05:37:21.365Z,97892.00
2018-08-20T05:37:52.959Z,97891.13
2018-08-20T05:38:24.542Z,97895.34
2018-08-20T05:38:56.137Z,97896.19
2018-08-20T05:39:27.775Z,97894.48
2018-08-20T05:39:59.364Z,97893.64
2018-08-20T05:40:30.946Z,97893.20
2018-08-20T05:41:02.531Z,97895.75
2018-08-20T05:41:34.138Z,97893.59
2018-08-20T05:42:05.718Z,97897.03
2018-08-20T05:42:37.307Z,97895.73
2018-08-20T05:43:08.914Z,97894.45
2018-08-20T05:43:40.526Z,97897.87
2018-08-20T05:44:12.116Z,97896.19
2018-08-20T05:44:43.805Z,97897.91
2018-08-20T05:45:15.390Z,97898.81
2018-08-20T05:45:46.970Z,97902.19
2018-08-20T05:46:18.577Z,97894.50
2018-08-20T05:46:50.173Z,97900.47
2018-08-20T05:47:21.763Z,97900.03
2018-08-20T05:47:53.352Z,97896.19
2018-08-20T05:48:24.958Z,97898.74
2018-08-20T05:48:56.566Z,97898.31
2018-08-20T05:49:28.160Z,97897.91
2018-08-20T05:49:59.810Z,97895.36
2018-08-20T05:50:31.409Z,97899.63
2018-08-20T05:51:03.001Z,97900.95
2018-08-20T05:51:34.596Z,97898.39
2018-08-20T05:52:06.207Z,97901.38
2018-08-20T05:52:37.851Z,97901.39
2018-08-20T05:53:09.440Z,97899.20
2018-08-20T05:53:41.039Z,97907.36
2018-08-20T05:54:12.624Z,97907.31
2018-08-20T05:54:44.234Z,97904.81
2018-08-20T05:55:15.872Z,97902.23
2018-08-20T05:55:47.491Z,97903.05
2018-08-20T05:56:19.097Z,97901.81
2018-08-20T05:56:50.691Z,97901.39
2018-08-20T05:57:22.286Z,97897.58
2018-08-20T05:57:53.931Z,97897.48
2018-08-20T05:58:25.530Z,97902.17
2018-08-20T05:58:57.137Z,97906.00
2018-08-20T05:59:28.743Z,97897.97
2018-08-20T06:00:00.323Z,97897.06
2018-08-20T06:00:31.920Z,97905.16
2018-08-20T06:01:03.507Z,97906.42
2018-08-20T06:01:35.116Z,97907.70
2018-08-20T06:02:06.713Z,97907.70
2018-08-20T06:02:38.319Z,97906.42
2018-08-20T06:03:09.954Z,97909.44
2018-08-20T06:03:41.548Z,97907.73
2018-08-20T06:04:13.151Z,97906.86
2018-08-20T06:04:44.744Z,97907.28
2018-08-20T06:05:16.353Z,97912.83
2018-08-20T06:05:47.944Z,97909.34
2018-08-20T06:06:19.551Z,97909.78
2018-08-20T06:06:51.184Z,97914.88
2018-08-20T06:07:22.780Z,97913.96
2018-08-20T06:07:54.425Z,97910.54
2018-08-20T06:08:26.032Z,97913.02
2018-08-20T06:08:57.642Z,97915.65
2018-08-20T06:09:29.232Z,97909.64
2018-08-20T06:10:00.816Z,97914.72
2018-08-20T06:10:32.412Z,97913.02
2018-08-20T06:11:04.000Z,97914.72